sensor_id;sensor_type;location;lat;lon;timestamp;temperature;humidity
67862;DHT22;54665;51.462;6.698;2023-11-21T00:01:42;6.57;99.99
67862;DHT22;54665;51.462;6.698;2023-11-21T00:03:43;6.64;99.99
67862;DHT22;54665;51.462;6.698;2023-11-21T00:05:46;6.71;99.86
67862;DHT22;54665;51.462;6.698;2023-11-21T00:07:46;6.72;99.80
67862;DHT22;54665;51.462;6.698;2023-11-21T00:09:48;6.74;99.73
67862;DHT22;54665;51.462;6.698;2023-11-21T00:11:48;6.78;99.69
67862;DHT22;54665;51.462;6.698;2023-11-21T00:13:48;6.81;99.67
67862;DHT22;54665;51.462;6.698;2023-11-21T00:15:48;6.87;99.65
67862;DHT22;54665;51.462;6.698;2023-11-21T00:17:49;6.89;99.53
67862;DHT22;54665;51.462;6.698;2023-11-21T00:19:49;6.81;99.69
67862;DHT22;54665;51.462;6.698;2023-11-21T00:21:49;6.85;99.82
67862;DHT22;54665;51.462;6.698;2023-11-21T00:23:50;6.85;99.83
67862;DHT22;54665;51.462;6.698;2023-11-21T00:25:50;6.88;99.88
67862;DHT22;54665;51.462;6.698;2023-11-21T00:27:50;6.91;99.89
67862;DHT22;54665;51.462;6.698;2023-11-21T00:29:50;6.91;99.92
67862;DHT22;54665;51.462;6.698;2023-11-21T00:31:51;6.91;99.97
67862;DHT22;54665;51.462;6.698;2023-11-21T00:33:52;6.95;99.99
67862;DHT22;54665;51.462;6.698;2023-11-21T00:35:52;7.01;99.96
67862;DHT22;54665;51.462;6.698;2023-11-21T00:37:53;7.05;99.96
67862;DHT22;54665;51.462;6.698;2023-11-21T00:39:54;7.08;99.77
67862;DHT22;54665;51.462;6.698;2023-11-21T00:41:54;7.08;99.70
67862;DHT22;54665;51.462;6.698;2023-11-21T00:43:54;7.10;99.66
67862;DHT22;54665;51.462;6.698;2023-11-21T00:45:55;7.13;99.36
67862;DHT22;54665;51.462;6.698;2023-11-21T00:47:56;7.10;99.51
67862;DHT22;54665;51.462;6.698;2023-11-21T00:49:56;7.15;99.47
67862;DHT22;54665;51.462;6.698;2023-11-21T00:51:56;7.12;99.38
67862;DHT22;54665;51.462;6.698;2023-11-21T00:53:57;7.19;99.38
67862;DHT22;54665;51.462;6.698;2023-11-21T00:55:57;7.22;99.33
67862;DHT22;54665;51.462;6.698;2023-11-21T00:57:58;7.27;99.29
67862;DHT22;54665;51.462;6.698;2023-11-21T00:59:58;7.29;99.35
67862;DHT22;54665;51.462;6.698;2023-11-21T01:01:59;7.29;99.29
67862;DHT22;54665;51.462;6.698;2023-11-21T01:03:59;7.29;99.43
67862;DHT22;54665;51.462;6.698;2023-11-21T01:05:59;7.34;99.70
67862;DHT22;54665;51.462;6.698;2023-11-21T01:08:00;7.40;99.46
67862;DHT22;54665;51.462;6.698;2023-11-21T01:10:00;7.46;99.33
67862;DHT22;54665;51.462;6.698;2023-11-21T01:12:00;7.49;99.27
67862;DHT22;54665;51.462;6.698;2023-11-21T01:14:01;7.50;99.23
67862;DHT22;54665;51.462;6.698;2023-11-21T01:16:02;7.50;99.15
67862;DHT22;54665;51.462;6.698;2023-11-21T01:18:02;7.56;99.23
67862;DHT22;54665;51.462;6.698;2023-11-21T01:20:05;7.54;99.16
67862;DHT22;54665;51.462;6.698;2023-11-21T01:22:06;7.60;99.20
67862;DHT22;54665;51.462;6.698;2023-11-21T01:24:07;7.60;99.01
67862;DHT22;54665;51.462;6.698;2023-11-21T01:26:07;7.51;99.15
67862;DHT22;54665;51.462;6.698;2023-11-21T01:28:07;7.53;99.36
67862;DHT22;54665;51.462;6.698;2023-11-21T01:30:08;7.57;99.40
67862;DHT22;54665;51.462;6.698;2023-11-21T01:32:09;7.60;99.28
67862;DHT22;54665;51.462;6.698;2023-11-21T01:34:09;7.59;99.30
67862;DHT22;54665;51.462;6.698;2023-11-21T01:36:10;7.51;99.51
67862;DHT22;54665;51.462;6.698;2023-11-21T01:38:10;7.51;99.59
67862;DHT22;54665;51.462;6.698;2023-11-21T01:40:10;7.49;99.64
67862;DHT22;54665;51.462;6.698;2023-11-21T01:42:11;7.51;99.69
67862;DHT22;54665;51.462;6.698;2023-11-21T01:44:11;7.50;99.62
67862;DHT22;54665;51.462;6.698;2023-11-21T01:46:11;7.51;99.73
67862;DHT22;54665;51.462;6.698;2023-11-21T01:48:13;7.53;99.66
67862;DHT22;54665;51.462;6.698;2023-11-21T01:50:16;7.56;99.63
67862;DHT22;54665;51.462;6.698;2023-11-21T01:52:16;7.57;99.64
67862;DHT22;54665;51.462;6.698;2023-11-21T01:54:17;7.57;99.68
67862;DHT22;54665;51.462;6.698;2023-11-21T01:56:19;7.56;99.74
67862;DHT22;54665;51.462;6.698;2023-11-21T01:58:19;7.59;99.79
67862;DHT22;54665;51.462;6.698;2023-11-21T02:00:20;7.61;99.70
67862;DHT22;54665;51.462;6.698;2023-11-21T02:02:20;7.60;99.70
67862;DHT22;54665;51.462;6.698;2023-11-21T02:04:21;7.64;99.76
67862;DHT22;54665;51.462;6.698;2023-11-21T02:06:21;7.66;99.75
67862;DHT22;54665;51.462;6.698;2023-11-21T02:08:21;7.67;99.70
67862;DHT22;54665;51.462;6.698;2023-11-21T02:10:22;7.69;99.67
67862;DHT22;54665;51.462;6.698;2023-11-21T02:12:22;7.67;99.74
67862;DHT22;54665;51.462;6.698;2023-11-21T02:14:23;7.71;99.72
67862;DHT22;54665;51.462;6.698;2023-11-21T02:16:23;7.75;99.70
67862;DHT22;54665;51.462;6.698;2023-11-21T02:18:23;7.75;99.68
67862;DHT22;54665;51.462;6.698;2023-11-21T02:20:24;7.78;99.67
67862;DHT22;54665;51.462;6.698;2023-11-21T02:22:30;7.81;99.62
67862;DHT22;54665;51.462;6.698;2023-11-21T02:24:31;7.78;99.52
67862;DHT22;54665;51.462;6.698;2023-11-21T02:26:31;7.78;99.57
67862;DHT22;54665;51.462;6.698;2023-11-21T02:28:31;7.77;99.48
67862;DHT22;54665;51.462;6.698;2023-11-21T02:30:32;7.80;99.39
67862;DHT22;54665;51.462;6.698;2023-11-21T02:32:32;7.80;99.51
67862;DHT22;54665;51.462;6.698;2023-11-21T02:34:32;7.84;99.51
67862;DHT22;54665;51.462;6.698;2023-11-21T02:36:32;7.84;99.51
67862;DHT22;54665;51.462;6.698;2023-11-21T02:38:33;7.87;99.48
67862;DHT22;54665;51.462;6.698;2023-11-21T02:40:33;7.85;99.43
67862;DHT22;54665;51.462;6.698;2023-11-21T02:42:33;7.85;99.51
67862;DHT22;54665;51.462;6.698;2023-11-21T02:44:34;7.84;99.51
67862;DHT22;54665;51.462;6.698;2023-11-21T02:46:34;7.88;99.44
67862;DHT22;54665;51.462;6.698;2023-11-21T02:48:35;7.84;99.40
67862;DHT22;54665;51.462;6.698;2023-11-21T02:50:35;7.85;99.51
67862;DHT22;54665;51.462;6.698;2023-11-21T02:52:36;7.83;99.41
67862;DHT22;54665;51.462;6.698;2023-11-21T02:54:36;7.84;99.41
67862;DHT22;54665;51.462;6.698;2023-11-21T02:56:36;7.85;99.47
67862;DHT22;54665;51.462;6.698;2023-11-21T02:58:37;7.84;99.43
67862;DHT22;54665;51.462;6.698;2023-11-21T03:00:37;7.87;99.42
67862;DHT22;54665;51.462;6.698;2023-11-21T03:02:38;7.84;99.43
67862;DHT22;54665;51.462;6.698;2023-11-21T03:04:38;7.88;99.42
67862;DHT22;54665;51.462;6.698;2023-11-21T03:06:39;7.90;99.38
67862;DHT22;54665;51.462;6.698;2023-11-21T03:08:39;7.87;99.44
67862;DHT22;54665;51.462;6.698;2023-11-21T03:10:39;7.87;99.48
67862;DHT22;54665;51.462;6.698;2023-11-21T03:12:40;7.90;99.49
67862;DHT22;54665;51.462;6.698;2023-11-21T03:14:40;7.88;99.45
67862;DHT22;54665;51.462;6.698;2023-11-21T03:16:40;7.88;99.48
67862;DHT22;54665;51.462;6.698;2023-11-21T03:18:41;7.85;99.51
67862;DHT22;54665;51.462;6.698;2023-11-21T03:20:43;7.85;99.53
67862;DHT22;54665;51.462;6.698;2023-11-21T03:22:43;7.87;99.52
67862;DHT22;54665;51.462;6.698;2023-11-21T03:24:44;7.88;99.54
67862;DHT22;54665;51.462;6.698;2023-11-21T03:26:48;7.90;99.54
67862;DHT22;54665;51.462;6.698;2023-11-21T03:28:48;7.91;99.54
67862;DHT22;54665;51.462;6.698;2023-11-21T03:30:48;7.92;99.52
67862;DHT22;54665;51.462;6.698;2023-11-21T03:32:49;7.92;99.49
67862;DHT22;54665;51.462;6.698;2023-11-21T03:34:57;7.90;99.46
67862;DHT22;54665;51.462;6.698;2023-11-21T03:36:57;7.91;99.50
67862;DHT22;54665;51.462;6.698;2023-11-21T03:38:57;7.90;99.41
67862;DHT22;54665;51.462;6.698;2023-11-21T03:40:58;7.88;99.40
67862;DHT22;54665;51.462;6.698;2023-11-21T03:42:58;7.88;99.39
67862;DHT22;54665;51.462;6.698;2023-11-21T03:44:58;7.85;99.40
67862;DHT22;54665;51.462;6.698;2023-11-21T03:46:59;7.81;99.36
67862;DHT22;54665;51.462;6.698;2023-11-21T03:48:59;7.80;99.31
67862;DHT22;54665;51.462;6.698;2023-11-21T03:50:59;7.75;99.42
67862;DHT22;54665;51.462;6.698;2023-11-21T03:53:00;7.77;99.44
67862;DHT22;54665;51.462;6.698;2023-11-21T03:55:02;7.70;99.41
67862;DHT22;54665;51.462;6.698;2023-11-21T03:57:03;7.69;99.50
67862;DHT22;54665;51.462;6.698;2023-11-21T03:59:03;7.66;99.52
67862;DHT22;54665;51.462;6.698;2023-11-21T04:01:04;7.63;99.44
67862;DHT22;54665;51.462;6.698;2023-11-21T04:03:04;7.63;99.46
67862;DHT22;54665;51.462;6.698;2023-11-21T04:05:05;7.59;99.48
67862;DHT22;54665;51.462;6.698;2023-11-21T04:07:05;7.53;99.45
67862;DHT22;54665;51.462;6.698;2023-11-21T04:09:06;7.51;99.42
67862;DHT22;54665;51.462;6.698;2023-11-21T04:11:06;7.49;99.45
67862;DHT22;54665;51.462;6.698;2023-11-21T04:13:06;7.47;99.46
67862;DHT22;54665;51.462;6.698;2023-11-21T04:15:07;7.44;99.46
67862;DHT22;54665;51.462;6.698;2023-11-21T04:17:08;7.50;99.51
67862;DHT22;54665;51.462;6.698;2023-11-21T04:19:08;7.53;99.45
67862;DHT22;54665;51.462;6.698;2023-11-21T04:21:08;7.53;99.49
67862;DHT22;54665;51.462;6.698;2023-11-21T04:23:09;7.57;99.46
67862;DHT22;54665;51.462;6.698;2023-11-21T04:25:14;7.54;99.49
67862;DHT22;54665;51.462;6.698;2023-11-21T04:27:14;7.53;99.52
67862;DHT22;54665;51.462;6.698;2023-11-21T04:29:15;7.50;99.50
67862;DHT22;54665;51.462;6.698;2023-11-21T04:31:15;7.44;99.44
67862;DHT22;54665;51.462;6.698;2023-11-21T04:33:15;7.43;99.48
67862;DHT22;54665;51.462;6.698;2023-11-21T04:35:16;7.39;99.42
67862;DHT22;54665;51.462;6.698;2023-11-21T04:37:16;7.34;99.47
67862;DHT22;54665;51.462;6.698;2023-11-21T04:39:20;7.29;99.49
67862;DHT22;54665;51.462;6.698;2023-11-21T04:41:20;7.26;99.38
67862;DHT22;54665;51.462;6.698;2023-11-21T04:43:20;7.20;99.63
67862;DHT22;54665;51.462;6.698;2023-11-21T04:45:21;7.13;99.99
67862;DHT22;54665;51.462;6.698;2023-11-21T04:47:21;7.12;99.79
67862;DHT22;54665;51.462;6.698;2023-11-21T04:49:21;7.15;99.76
67862;DHT22;54665;51.462;6.698;2023-11-21T04:51:22;7.18;99.84
67862;DHT22;54665;51.462;6.698;2023-11-21T04:53:22;7.20;99.84
67862;DHT22;54665;51.462;6.698;2023-11-21T04:55:22;7.18;99.76
67862;DHT22;54665;51.462;6.698;2023-11-21T04:57:25;7.13;99.74
67862;DHT22;54665;51.462;6.698;2023-11-21T04:59:26;7.15;99.77
67862;DHT22;54665;51.462;6.698;2023-11-21T05:01:26;7.15;99.96
67862;DHT22;54665;51.462;6.698;2023-11-21T05:03:26;7.12;99.79
67862;DHT22;54665;51.462;6.698;2023-11-21T05:05:26;7.08;99.65
67862;DHT22;54665;51.462;6.698;2023-11-21T05:07:27;7.05;99.73
67862;DHT22;54665;51.462;6.698;2023-11-21T05:09:27;7.05;99.80
67862;DHT22;54665;51.462;6.698;2023-11-21T05:11:28;7.03;99.80
67862;DHT22;54665;51.462;6.698;2023-11-21T05:13:29;7.03;99.74
67862;DHT22;54665;51.462;6.698;2023-11-21T05:15:29;6.99;99.75
67862;DHT22;54665;51.462;6.698;2023-11-21T05:17:29;7.02;99.76
67862;DHT22;54665;51.462;6.698;2023-11-21T05:19:30;7.05;99.83
67862;DHT22;54665;51.462;6.698;2023-11-21T05:21:30;7.05;99.86
67862;DHT22;54665;51.462;6.698;2023-11-21T05:23:30;7.13;99.96
67862;DHT22;54665;51.462;6.698;2023-11-21T05:25:31;7.23;99.99
67862;DHT22;54665;51.462;6.698;2023-11-21T05:27:31;7.33;99.99
67862;DHT22;54665;51.462;6.698;2023-11-21T05:29:31;7.43;99.99
67862;DHT22;54665;51.462;6.698;2023-11-21T05:31:32;7.49;99.99
67862;DHT22;54665;51.462;6.698;2023-11-21T05:33:32;7.53;99.99
67862;DHT22;54665;51.462;6.698;2023-11-21T05:35:32;7.59;99.99
67862;DHT22;54665;51.462;6.698;2023-11-21T05:37:32;7.64;99.99
67862;DHT22;54665;51.462;6.698;2023-11-21T05:39:33;7.71;99.99
67862;DHT22;54665;51.462;6.698;2023-11-21T05:41:33;7.73;99.99
67862;DHT22;54665;51.462;6.698;2023-11-21T05:43:33;7.78;99.99
67862;DHT22;54665;51.462;6.698;2023-11-21T05:45:34;7.84;99.99
67862;DHT22;54665;51.462;6.698;2023-11-21T05:47:39;7.88;99.99
67862;DHT22;54665;51.462;6.698;2023-11-21T05:49:39;7.88;99.99
67862;DHT22;54665;51.462;6.698;2023-11-21T05:51:40;7.85;99.99
67862;DHT22;54665;51.462;6.698;2023-11-21T05:53:40;7.91;99.99
67862;DHT22;54665;51.462;6.698;2023-11-21T05:55:40;7.95;99.99
67862;DHT22;54665;51.462;6.698;2023-11-21T05:57:42;7.97;99.99
67862;DHT22;54665;51.462;6.698;2023-11-21T05:59:42;7.97;99.94
67862;DHT22;54665;51.462;6.698;2023-11-21T06:01:43;7.98;99.94
67862;DHT22;54665;51.462;6.698;2023-11-21T06:03:43;8.01;99.99
67862;DHT22;54665;51.462;6.698;2023-11-21T06:05:43;7.99;99.85
67862;DHT22;54665;51.462;6.698;2023-11-21T06:07:43;8.01;99.98
67862;DHT22;54665;51.462;6.698;2023-11-21T06:09:44;8.02;99.95
67862;DHT22;54665;51.462;6.698;2023-11-21T06:11:44;8.04;99.92
67862;DHT22;54665;51.462;6.698;2023-11-21T06:13:45;7.95;99.99
67862;DHT22;54665;51.462;6.698;2023-11-21T06:15:45;7.95;99.99
67862;DHT22;54665;51.462;6.698;2023-11-21T06:17:45;8.02;99.99
67862;DHT22;54665;51.462;6.698;2023-11-21T06:19:45;8.02;99.99
67862;DHT22;54665;51.462;6.698;2023-11-21T06:21:46;8.02;99.94
67862;DHT22;54665;51.462;6.698;2023-11-21T06:23:46;7.94;99.99
67862;DHT22;54665;51.462;6.698;2023-11-21T06:25:47;7.99;99.99
67862;DHT22;54665;51.462;6.698;2023-11-21T06:27:48;7.94;99.99
67862;DHT22;54665;51.462;6.698;2023-11-21T06:29:48;7.94;99.99
67862;DHT22;54665;51.462;6.698;2023-11-21T06:31:49;7.92;99.99
67862;DHT22;54665;51.462;6.698;2023-11-21T06:33:49;7.99;99.99
67862;DHT22;54665;51.462;6.698;2023-11-21T06:35:50;8.02;99.99
67862;DHT22;54665;51.462;6.698;2023-11-21T06:37:50;8.02;99.99
67862;DHT22;54665;51.462;6.698;2023-11-21T06:39:50;8.02;99.99
67862;DHT22;54665;51.462;6.698;2023-11-21T06:41:50;8.02;99.99
67862;DHT22;54665;51.462;6.698;2023-11-21T06:43:51;8.04;99.99
67862;DHT22;54665;51.462;6.698;2023-11-21T06:45:51;8.04;99.99
67862;DHT22;54665;51.462;6.698;2023-11-21T06:47:51;8.06;99.99
67862;DHT22;54665;51.462;6.698;2023-11-21T06:49:52;8.02;99.96
67862;DHT22;54665;51.462;6.698;2023-11-21T06:51:52;8.02;99.99
67862;DHT22;54665;51.462;6.698;2023-11-21T06:53:53;7.99;99.99
67862;DHT22;54665;51.462;6.698;2023-11-21T06:55:53;8.06;99.99
67862;DHT22;54665;51.462;6.698;2023-11-21T06:57:53;8.05;99.99
67862;DHT22;54665;51.462;6.698;2023-11-21T06:59:54;8.11;99.97
67862;DHT22;54665;51.462;6.698;2023-11-21T07:01:54;8.15;99.84
67862;DHT22;54665;51.462;6.698;2023-11-21T07:03:54;8.04;99.78
67862;DHT22;54665;51.462;6.698;2023-11-21T07:05:55;8.02;99.99
67862;DHT22;54665;51.462;6.698;2023-11-21T07:07:55;8.08;99.99
67862;DHT22;54665;51.462;6.698;2023-11-21T07:09:55;8.05;99.96
67862;DHT22;54665;51.462;6.698;2023-11-21T07:11:56;8.02;99.99
67862;DHT22;54665;51.462;6.698;2023-11-21T07:13:56;8.05;99.99
67862;DHT22;54665;51.462;6.698;2023-11-21T07:16:00;8.06;99.97
67862;DHT22;54665;51.462;6.698;2023-11-21T07:18:00;8.14;99.96
67862;DHT22;54665;51.462;6.698;2023-11-21T07:20:01;8.20;99.85
67862;DHT22;54665;51.462;6.698;2023-11-21T07:22:01;8.22;99.79
67862;DHT22;54665;51.462;6.698;2023-11-21T07:24:03;8.22;99.71
67862;DHT22;54665;51.462;6.698;2023-11-21T07:26:04;8.28;99.61
67862;DHT22;54665;51.462;6.698;2023-11-21T07:28:04;8.32;99.53
67862;DHT22;54665;51.462;6.698;2023-11-21T07:30:05;8.33;99.42
67862;DHT22;54665;51.462;6.698;2023-11-21T07:32:05;8.36;99.40
67862;DHT22;54665;51.462;6.698;2023-11-21T07:34:06;8.32;99.31
67862;DHT22;54665;51.462;6.698;2023-11-21T07:36:06;8.41;99.46
67862;DHT22;54665;51.462;6.698;2023-11-21T07:38:07;8.42;99.23
67862;DHT22;54665;51.462;6.698;2023-11-21T07:40:07;8.43;99.23
67862;DHT22;54665;51.462;6.698;2023-11-21T07:42:08;8.39;99.07
67862;DHT22;54665;51.462;6.698;2023-11-21T07:44:11;8.32;98.93
67862;DHT22;54665;51.462;6.698;2023-11-21T07:46:12;8.24;99.43
67862;DHT22;54665;51.462;6.698;2023-11-21T07:48:13;8.41;99.52
67862;DHT22;54665;51.462;6.698;2023-11-21T07:50:14;8.46;99.16
67862;DHT22;54665;51.462;6.698;2023-11-21T07:52:14;8.39;99.40
67862;DHT22;54665;51.462;6.698;2023-11-21T07:54:15;8.55;99.17
67862;DHT22;54665;51.462;6.698;2023-11-21T07:56:15;8.62;99.07
67862;DHT22;54665;51.462;6.698;2023-11-21T07:58:15;8.64;98.88
67862;DHT22;54665;51.462;6.698;2023-11-21T08:00:16;8.74;99.01
67862;DHT22;54665;51.462;6.698;2023-11-21T08:02:16;8.52;98.57
67862;DHT22;54665;51.462;6.698;2023-11-21T08:04:16;8.36;99.25
67862;DHT22;54665;51.462;6.698;2023-11-21T08:06:17;8.42;99.42
67862;DHT22;54665;51.462;6.698;2023-11-21T08:08:17;8.43;99.53
67862;DHT22;54665;51.462;6.698;2023-11-21T08:10:17;8.56;99.47
67862;DHT22;54665;51.462;6.698;2023-11-21T08:12:18;8.45;99.26
67862;DHT22;54665;51.462;6.698;2023-11-21T08:14:19;8.39;99.63
67862;DHT22;54665;51.462;6.698;2023-11-21T08:16:19;8.53;99.46
67862;DHT22;54665;51.462;6.698;2023-11-21T08:18:19;8.50;99.08
67862;DHT22;54665;51.462;6.698;2023-11-21T08:20:20;8.59;99.33
67862;DHT22;54665;51.462;6.698;2023-11-21T08:22:20;8.64;99.16
67862;DHT22;54665;51.462;6.698;2023-11-21T08:24:21;8.64;98.97
67862;DHT22;54665;51.462;6.698;2023-11-21T08:26:21;8.62;98.83
67862;DHT22;54665;51.462;6.698;2023-11-21T08:28:22;8.49;98.93
67862;DHT22;54665;51.462;6.698;2023-11-21T08:30:22;8.59;98.87
67862;DHT22;54665;51.462;6.698;2023-11-21T08:32:22;8.67;98.80
67862;DHT22;54665;51.462;6.698;2023-11-21T08:34:23;8.63;98.79
67862;DHT22;54665;51.462;6.698;2023-11-21T08:36:23;8.72;98.69
67862;DHT22;54665;51.462;6.698;2023-11-21T08:38:24;8.76;98.77
67862;DHT22;54665;51.462;6.698;2023-11-21T08:40:24;8.76;98.60
67862;DHT22;54665;51.462;6.698;2023-11-21T08:42:27;8.69;98.51
67862;DHT22;54665;51.462;6.698;2023-11-21T08:44:27;8.53;98.89
67862;DHT22;54665;51.462;6.698;2023-11-21T08:46:28;8.48;99.06
67862;DHT22;54665;51.462;6.698;2023-11-21T08:48:28;8.48;99.03
67862;DHT22;54665;51.462;6.698;2023-11-21T08:50:29;8.60;98.89
67862;DHT22;54665;51.462;6.698;2023-11-21T08:52:29;8.66;98.66
67862;DHT22;54665;51.462;6.698;2023-11-21T08:54:29;8.60;98.85
67862;DHT22;54665;51.462;6.698;2023-11-21T08:56:29;8.63;98.74
67862;DHT22;54665;51.462;6.698;2023-11-21T08:58:33;8.53;99.04
67862;DHT22;54665;51.462;6.698;2023-11-21T09:00:33;8.56;98.74
67862;DHT22;54665;51.462;6.698;2023-11-21T09:02:33;8.67;98.92
67862;DHT22;54665;51.462;6.698;2023-11-21T09:04:33;8.60;98.56
67862;DHT22;54665;51.462;6.698;2023-11-21T09:06:34;8.62;98.96
67862;DHT22;54665;51.462;6.698;2023-11-21T09:08:34;8.57;98.89
67862;DHT22;54665;51.462;6.698;2023-11-21T09:10:34;8.60;98.89
67862;DHT22;54665;51.462;6.698;2023-11-21T09:12:35;8.79;98.58
67862;DHT22;54665;51.462;6.698;2023-11-21T09:14:36;8.73;98.35
67862;DHT22;54665;51.462;6.698;2023-11-21T09:16:37;8.67;98.63
67862;DHT22;54665;51.462;6.698;2023-11-21T09:18:37;8.74;98.32
67862;DHT22;54665;51.462;6.698;2023-11-21T09:20:37;8.88;98.16
67862;DHT22;54665;51.462;6.698;2023-11-21T09:22:38;8.86;97.70
67862;DHT22;54665;51.462;6.698;2023-11-21T09:24:38;9.00;97.88
67862;DHT22;54665;51.462;6.698;2023-11-21T09:26:38;9.14;97.68
67862;DHT22;54665;51.462;6.698;2023-11-21T09:28:38;9.27;97.79
67862;DHT22;54665;51.462;6.698;2023-11-21T09:30:39;9.24;97.64
67862;DHT22;54665;51.462;6.698;2023-11-21T09:32:40;9.21;97.75
67862;DHT22;54665;51.462;6.698;2023-11-21T09:34:40;9.28;97.75
67862;DHT22;54665;51.462;6.698;2023-11-21T09:36:40;9.32;97.58
67862;DHT22;54665;51.462;6.698;2023-11-21T09:38:41;9.37;97.64
67862;DHT22;54665;51.462;6.698;2023-11-21T09:40:41;9.34;97.56
67862;DHT22;54665;51.462;6.698;2023-11-21T09:43:03;8.97;96.98
67862;DHT22;54665;51.462;6.698;2023-11-21T09:45:11;8.97;97.74
67862;DHT22;54665;51.462;6.698;2023-11-21T09:47:15;8.96;97.47
67862;DHT22;54665;51.462;6.698;2023-11-21T09:49:18;8.94;97.69
67862;DHT22;54665;51.462;6.698;2023-11-21T09:51:23;9.01;97.67
67862;DHT22;54665;51.462;6.698;2023-11-21T09:53:29;9.21;97.60
67862;DHT22;54665;51.462;6.698;2023-11-21T09:55:34;9.27;97.30
67862;DHT22;54665;51.462;6.698;2023-11-21T09:57:34;9.23;97.00
67862;DHT22;54665;51.462;6.698;2023-11-21T09:59:35;9.58;96.95
67862;DHT22;54665;51.462;6.698;2023-11-21T10:01:36;9.78;96.26
67862;DHT22;54665;51.462;6.698;2023-11-21T10:03:37;9.23;96.82
67862;DHT22;54665;51.462;6.698;2023-11-21T10:05:39;9.31;96.89
67862;DHT22;54665;51.462;6.698;2023-11-21T10:07:40;9.34;96.14
67862;DHT22;54665;51.462;6.698;2023-11-21T10:09:41;9.25;97.04
67862;DHT22;54665;51.462;6.698;2023-11-21T10:11:42;9.18;96.94
67862;DHT22;54665;51.462;6.698;2023-11-21T10:13:45;9.24;97.10
67862;DHT22;54665;51.462;6.698;2023-11-21T10:15:50;9.23;97.22
67862;DHT22;54665;51.462;6.698;2023-11-21T10:17:52;9.41;97.32
67862;DHT22;54665;51.462;6.698;2023-11-21T10:19:52;9.71;96.73
67862;DHT22;54665;51.462;6.698;2023-11-21T10:21:53;9.92;96.04
67862;DHT22;54665;51.462;6.698;2023-11-21T10:23:53;9.61;95.45
67862;DHT22;54665;51.462;6.698;2023-11-21T10:25:54;9.39;96.31
67862;DHT22;54665;51.462;6.698;2023-11-21T10:27:58;9.61;95.89
67862;DHT22;54665;51.462;6.698;2023-11-21T10:30:01;9.92;94.96
67862;DHT22;54665;51.462;6.698;2023-11-21T10:32:02;9.49;96.18
67862;DHT22;54665;51.462;6.698;2023-11-21T10:34:20;9.52;96.13
67862;DHT22;54665;51.462;6.698;2023-11-21T10:36:27;9.62;96.51
67862;DHT22;54665;51.462;6.698;2023-11-21T10:38:33;9.59;95.97
67862;DHT22;54665;51.462;6.698;2023-11-21T10:40:42;10.20;95.23
67862;DHT22;54665;51.462;6.698;2023-11-21T10:42:42;10.20;94.76
67862;DHT22;54665;51.462;6.698;2023-11-21T10:44:42;10.56;94.14
67862;DHT22;54665;51.462;6.698;2023-11-21T10:46:42;10.74;93.94
67862;DHT22;54665;51.462;6.698;2023-11-21T10:48:43;10.94;92.90
67862;DHT22;54665;51.462;6.698;2023-11-21T10:50:45;11.01;92.75
67862;DHT22;54665;51.462;6.698;2023-11-21T10:52:45;10.91;91.72
67862;DHT22;54665;51.462;6.698;2023-11-21T10:54:46;10.68;93.22
67862;DHT22;54665;51.462;6.698;2023-11-21T10:56:49;11.01;92.71
67862;DHT22;54665;51.462;6.698;2023-11-21T10:58:50;10.79;92.57
67862;DHT22;54665;51.462;6.698;2023-11-21T11:00:51;10.38;93.52
67862;DHT22;54665;51.462;6.698;2023-11-21T11:02:52;9.97;94.46
67862;DHT22;54665;51.462;6.698;2023-11-21T11:04:53;9.76;95.11
67862;DHT22;54665;51.462;6.698;2023-11-21T11:06:57;9.92;95.80
67862;DHT22;54665;51.462;6.698;2023-11-21T11:08:57;9.89;94.91
67862;DHT22;54665;51.462;6.698;2023-11-21T11:10:58;9.48;96.51
67862;DHT22;54665;51.462;6.698;2023-11-21T11:12:59;9.51;96.38
67862;DHT22;54665;51.462;6.698;2023-11-21T11:15:00;9.46;96.81
67862;DHT22;54665;51.462;6.698;2023-11-21T11:17:01;9.37;96.98
67862;DHT22;54665;51.462;6.698;2023-11-21T11:19:02;9.32;96.82
67862;DHT22;54665;51.462;6.698;2023-11-21T11:22:06;9.37;97.03
67862;DHT22;54665;51.462;6.698;2023-11-21T11:23:59;9.39;96.48
67862;DHT22;54665;51.462;6.698;2023-11-21T11:26:37;9.55;96.54
67862;DHT22;54665;51.462;6.698;2023-11-21T11:33:36;9.69;96.30
67862;DHT22;54665;51.462;6.698;2023-11-21T11:35:57;9.69;96.35
67862;DHT22;54665;51.462;6.698;2023-11-21T11:38:01;9.48;96.82
67862;DHT22;54665;51.462;6.698;2023-11-21T11:40:06;9.52;96.72
67862;DHT22;54665;51.462;6.698;2023-11-21T11:42:08;9.39;96.99
67862;DHT22;54665;51.462;6.698;2023-11-21T11:44:46;9.39;96.66
67862;DHT22;54665;51.462;6.698;2023-11-21T11:46:46;9.32;97.40
67862;DHT22;54665;51.462;6.698;2023-11-21T11:48:48;9.32;97.79
67862;DHT22;54665;51.462;6.698;2023-11-21T11:51:05;9.30;97.63
67862;DHT22;54665;51.462;6.698;2023-11-21T11:53:13;9.14;97.77
67862;DHT22;54665;51.462;6.698;2023-11-21T11:55:15;9.13;97.59
67862;DHT22;54665;51.462;6.698;2023-11-21T11:57:16;9.18;97.85
67862;DHT22;54665;51.462;6.698;2023-11-21T11:59:16;9.10;97.73
67862;DHT22;54665;51.462;6.698;2023-11-21T12:01:18;9.23;97.95
67862;DHT22;54665;51.462;6.698;2023-11-21T12:03:19;9.21;97.30
67862;DHT22;54665;51.462;6.698;2023-11-21T12:05:21;9.30;97.37
67862;DHT22;54665;51.462;6.698;2023-11-21T12:07:21;9.48;97.43
67862;DHT22;54665;51.462;6.698;2023-11-21T12:09:23;9.52;96.95
67862;DHT22;54665;51.462;6.698;2023-11-21T12:11:32;9.82;96.29
67862;DHT22;54665;51.462;6.698;2023-11-21T12:13:33;10.03;95.45
67862;DHT22;54665;51.462;6.698;2023-11-21T12:15:34;9.62;95.46
67862;DHT22;54665;51.462;6.698;2023-11-21T12:17:34;9.92;95.41
67862;DHT22;54665;51.462;6.698;2023-11-21T12:19:34;9.92;95.07
67862;DHT22;54665;51.462;6.698;2023-11-21T12:21:36;9.82;95.28
67862;DHT22;54665;51.462;6.698;2023-11-21T12:23:36;10.16;94.92
67862;DHT22;54665;51.462;6.698;2023-11-21T12:25:37;10.07;95.09
67862;DHT22;54665;51.462;6.698;2023-11-21T12:27:37;10.02;95.82
67862;DHT22;54665;51.462;6.698;2023-11-21T12:29:37;9.96;95.83
67862;DHT22;54665;51.462;6.698;2023-11-21T12:31:40;9.81;95.95
67862;DHT22;54665;51.462;6.698;2023-11-21T12:33:40;9.90;95.70
67862;DHT22;54665;51.462;6.698;2023-11-21T12:35:41;9.87;96.42
67862;DHT22;54665;51.462;6.698;2023-11-21T12:37:41;9.83;96.10
67862;DHT22;54665;51.462;6.698;2023-11-21T12:39:41;9.92;96.22
67862;DHT22;54665;51.462;6.698;2023-11-21T12:41:42;9.85;96.15
67862;DHT22;54665;51.462;6.698;2023-11-21T12:43:43;9.89;96.15
67862;DHT22;54665;51.462;6.698;2023-11-21T12:45:43;9.87;96.13
67862;DHT22;54665;51.462;6.698;2023-11-21T12:47:48;9.78;96.33
67862;DHT22;54665;51.462;6.698;2023-11-21T12:49:49;9.85;96.29
67862;DHT22;54665;51.462;6.698;2023-11-21T12:51:50;9.90;96.05
67862;DHT22;54665;51.462;6.698;2023-11-21T12:53:51;9.86;96.43
67862;DHT22;54665;51.462;6.698;2023-11-21T12:55:51;9.82;96.42
67862;DHT22;54665;51.462;6.698;2023-11-21T12:57:54;9.71;96.78
67862;DHT22;54665;51.462;6.698;2023-11-21T12:59:58;9.63;96.83
67862;DHT22;54665;51.462;6.698;2023-11-21T13:01:58;9.62;97.09
67862;DHT22;54665;51.462;6.698;2023-11-21T13:03:58;9.65;97.20